Time;durP1;ratioP1;P1;durP2;ratioP2;P2;SDS_P1;SDS_P2;PMS_P1;PMS_P2;Temp;Humidity;BMP_temperature;BMP_pressure;BME280_temperature;BME280_humidity;BME280_pressure;Samples;Min_cycle;Max_cycle;Signal;HPM_P1;HPM_P2
2023/12/02 00:04:39;;;;;;;;;;;;;;;20.42;34.08;93952.22;10509070;28;2851;-51
2023/12/02 00:09:39;;;;;;;;;;;;;;;20.42;34.01;93959.34;10512940;28;2831;-50
2023/12/02 00:14:40;;;;;;;;;;;;;;;20.36;34.12;93953.47;10508191;28;3109;-54
2023/12/02 00:19:40;;;;;;;;;;;;;;;20.39;33.77;93949.44;10510033;28;2770;-52
2023/12/02 00:24:40;;;;;;;;;;;;;;;20.39;33.60;93952.84;10506829;28;2877;-47
2023/12/02 00:29:40;;;;;;;;;;;;;;;20.36;33.21;93948.19;10505937;28;2927;-47
2023/12/02 00:34:41;;;;;;;;;;;;;;;20.35;33.38;93949.31;10513094;28;3170;-53
2023/12/02 00:39:41;;;;;;;;;;;;;;;20.36;33.21;93953.47;10507598;28;2887;-49
2023/12/02 00:44:41;;;;;;;;;;;;;;;20.34;33.17;93954.88;10508627;28;4640;-49
2023/12/02 00:49:41;;;;;;;;;;;;;;;20.32;33.40;93960.44;10507268;28;2823;-50
2023/12/02 00:54:42;;;;;;;;;;;;;;;20.31;32.95;93966.81;10506301;28;2949;-51
2023/12/02 00:59:42;;;;;;;;;;;;;;;20.30;33.01;93965.25;10504801;28;2845;-49
2023/12/02 01:04:42;;;;;;;;;;;;;;;20.25;33.83;93968.06;10502841;28;2836;-51
2023/12/02 01:09:42;;;;;;;;;;;;;;;20.28;33.25;93975.31;10499904;28;3300;-47
2023/12/02 01:14:43;;;;;;;;;;;;;;;20.30;33.13;93977.66;10502360;28;2832;-50
2023/12/02 01:19:46;;;;;;;;;;;;;;;20.30;33.17;93978.41;10496692;28;2840;-49
2023/12/02 01:24:46;;;;;;;;;;;;;;;20.28;33.59;93976.09;10499735;28;2986;-51
2023/12/02 01:29:46;;;;;;;;;;;;;;;20.27;33.14;93982.44;10506866;28;2939;-53
2023/12/02 01:34:47;;;;;;;;;;;;;;;20.27;33.37;93976.41;10502858;28;2847;-49
2023/12/02 01:39:47;;;;;;;;;;;;;;;20.25;33.49;93960.94;10498585;28;2884;-52
2023/12/02 01:44:47;;;;;;;;;;;;;;;20.27;33.00;93963.25;10497807;28;4577;-49
2023/12/02 01:49:50;;;;;;;;;;;;;;;20.28;32.84;93968.19;10505004;28;2933;-48
2023/12/02 01:54:50;;;;;;;;;;;;;;;20.26;33.20;93954.59;10499704;28;2808;-52
2023/12/02 01:59:54;;;;;;;;;;;;;;;20.26;32.87;93959.06;10499527;28;2798;-48
2023/12/02 02:04:54;;;;;;;;;;;;;;;20.28;33.07;93956.88;10505819;28;2804;-47
2023/12/02 02:09:54;;;;;;;;;;;;;;;20.29;32.67;93958.44;10499567;28;2853;-50
2023/12/02 02:14:55;;;;;;;;;;;;;;;20.27;32.87;93950.09;10499093;28;3277;-53
2023/12/02 02:19:55;;;;;;;;;;;;;;;20.28;32.81;93952.41;10502672;28;2868;-50
2023/12/02 02:24:55;;;;;;;;;;;;;;;20.28;32.62;93949.78;10501696;28;2833;-50
2023/12/02 02:29:55;;;;;;;;;;;;;;;20.26;32.80;93956.44;10496450;28;2860;-48
2023/12/02 02:34:58;;;;;;;;;;;;;;;20.28;32.37;93959.53;10498945;28;2885;-47
2023/12/02 02:39:58;;;;;;;;;;;;;;;20.26;32.80;93957.22;10495056;28;2843;-48
2023/12/02 02:44:59;;;;;;;;;;;;;;;20.29;32.85;93963.72;10495216;28;4699;-51
2023/12/02 02:49:59;;;;;;;;;;;;;;;20.28;32.63;93959.53;10496339;28;3252;-53
2023/12/02 02:54:59;;;;;;;;;;;;;;;20.29;32.62;93971.59;10503508;28;2892;-51
2023/12/02 02:59:59;;;;;;;;;;;;;;;20.27;32.70;93976.41;10503600;28;2841;-50
2023/12/02 03:05:00;;;;;;;;;;;;;;;20.26;32.57;93986.16;10493788;28;2887;-50
2023/12/02 03:10:00;;;;;;;;;;;;;;;20.26;32.63;93973.00;10500470;28;2867;-52
2023/12/02 03:15:00;;;;;;;;;;;;;;;20.27;32.42;93977.19;10500827;28;2820;-51
2023/12/02 03:20:00;;;;;;;;;;;;;;;20.26;32.37;93972.22;10517365;28;2835;-47
2023/12/02 03:25:01;;;;;;;;;;;;;;;20.28;32.57;93986.63;10501336;28;2840;-50
2023/12/02 03:30:01;;;;;;;;;;;;;;;20.31;32.22;93985.22;10502571;28;2857;-52
2023/12/02 03:35:01;;;;;;;;;;;;;;;20.31;32.38;93985.22;10494433;28;2994;-47
2023/12/02 03:40:02;;;;;;;;;;;;;;;20.32;32.46;93997.28;10498745;28;2792;-50
2023/12/02 03:45:02;;;;;;;;;;;;;;;20.33;32.34;94005.94;10495706;28;4641;-50
2023/12/02 03:50:03;;;;;;;;;;;;;;;20.34;32.61;94013.53;10488230;28;2802;-48
2023/12/02 03:55:05;;;;;;;;;;;;;;;20.35;32.60;94014.31;10495424;28;2797;-48
2023/12/02 04:00:11;;;;;;;;;;;;;;;20.35;32.32;93996.66;10494175;28;2793;-47
2023/12/02 04:05:13;;;;;;;;;;;;;;;20.34;32.32;93976.69;10488442;28;2857;-53
2023/12/02 04:10:13;;;;;;;;;;;;;;;20.34;32.25;93966.16;10495145;28;2903;-47
2023/12/02 04:15:14;;;;;;;;;;;;;;;20.37;32.00;93955.03;10496102;28;2851;-50
2023/12/02 04:20:15;;;;;;;;;;;;;;;20.38;32.26;93971.59;10498260;28;2897;-47
2023/12/02 04:25:15;;;;;;;;;;;;;;;20.38;32.04;94024.97;10505323;28;2766;-49
2023/12/02 04:30:16;;;;;;;;;;;;;;;20.38;32.03;94045.28;10499954;28;2928;-50
2023/12/02 04:35:16;;;;;;;;;;;;;;;20.39;32.11;94054.69;10508046;28;2834;-51
2023/12/02 04:40:16;;;;;;;;;;;;;;;20.37;32.10;94028.69;10503089;28;2881;-49
2023/12/02 04:45:16;;;;;;;;;;;;;;;20.37;32.16;94020.81;10505231;28;4673;-50
2023/12/02 04:50:17;;;;;;;;;;;;;;;20.38;31.83;94030.22;10498244;28;2930;-49
2023/12/02 04:55:17;;;;;;;;;;;;;;;20.36;32.06;94000.81;10501498;28;2844;-49
2023/12/02 05:00:17;;;;;;;;;;;;;;;20.39;32.26;94008.09;10500513;28;2824;-48
2023/12/02 05:05:18;;;;;;;;;;;;;;;20.40;31.76;94033.34;10497644;28;2812;-47
2023/12/02 05:10:19;;;;;;;;;;;;;;;20.38;31.98;94027.59;10506034;28;2817;-51
2023/12/02 05:15:19;;;;;;;;;;;;;;;20.39;31.88;94049.44;10498327;28;2865;-49
2023/12/02 05:20:21;;;;;;;;;;;;;;;20.38;31.96;94061.81;10496635;28;2820;-51
2023/12/02 05:25:21;;;;;;;;;;;;;;;20.38;32.13;94077.59;10500382;28;2889;-52
2023/12/02 05:30:21;;;;;;;;;;;;;;;20.39;32.12;94075.75;10499621;28;2857;-49
2023/12/02 05:35:22;;;;;;;;;;;;;;;20.39;32.08;94088.91;10492823;28;2812;-48
2023/12/02 05:40:22;;;;;;;;;;;;;;;20.38;31.92;94098.66;10494853;28;3260;-49
2023/12/02 05:45:22;;;;;;;;;;;;;;;20.37;31.76;94091.84;10501337;28;4687;-51
2023/12/02 05:50:22;;;;;;;;;;;;;;;20.39;31.98;94078.38;10504656;28;2834;-48
2023/12/02 05:55:23;;;;;;;;;;;;;;;20.38;32.06;94085.50;10500126;28;2767;-49
2023/12/02 06:00:23;;;;;;;;;;;;;;;20.40;31.65;94082.56;10509152;27;2843;-50
2023/12/02 06:05:24;;;;;;;;;;;;;;;20.39;32.12;94067.84;10497861;28;2836;-47
2023/12/02 06:10:24;;;;;;;;;;;;;;;20.41;31.81;94090.16;10498472;28;2991;-47
2023/12/02 06:15:24;;;;;;;;;;;;;;;20.40;31.82;94095.72;10496240;28;2855;-47
2023/12/02 06:20:24;;;;;;;;;;;;;;;20.41;31.90;94098.03;10500910;28;2857;-50
2023/12/02 06:25:25;;;;;;;;;;;;;;;20.41;31.62;94124.38;10493518;28;2880;-52
2023/12/02 06:30:25;;;;;;;;;;;;;;;20.42;31.55;94138.31;10496421;28;2816;-47
2023/12/02 06:35:25;;;;;;;;;;;;;;;20.42;31.63;94144.34;10495433;28;2825;-50
2023/12/02 06:40:26;;;;;;;;;;;;;;;20.40;32.00;94157.03;10496509;28;2842;-48
2023/12/02 06:45:26;;;;;;;;;;;;;;;20.40;31.72;94148.38;10497541;28;4660;-48
2023/12/02 06:50:26;;;;;;;;;;;;;;;20.40;31.76;94159.69;10494277;28;2867;-49
2023/12/02 06:55:31;;;;;;;;;;;;;;;20.40;31.60;94188.63;10497003;28;2784;-50
2023/12/02 07:00:31;;;;;;;;;;;;;;;20.39;31.53;94200.22;10502849;28;2778;-50
2023/12/02 07:05:31;;;;;;;;;;;;;;;20.39;31.50;94205.47;10490236;28;2874;-52
2023/12/02 07:10:31;;;;;;;;;;;;;;;20.43;31.23;94210.91;10496039;28;3105;-51
2023/12/02 07:15:32;;;;;;;;;;;;;;;20.41;31.58;94221.75;10493750;28;3149;-50
2023/12/02 07:20:32;;;;;;;;;;;;;;;20.41;31.86;94219.09;10487997;28;2810;-50
2023/12/02 07:25:33;;;;;;;;;;;;;;;20.42;31.53;94235.69;10494491;28;2923;-50
2023/12/02 07:30:33;;;;;;;;;;;;;;;20.40;31.48;94240.47;10495660;28;2963;-48
2023/12/02 07:35:34;;;;;;;;;;;;;;;20.41;31.15;94240.16;10493226;28;3134;-51
2023/12/02 07:40:35;;;;;;;;;;;;;;;20.40;31.32;94233.38;10486716;28;3016;-48
2023/12/02 07:45:36;;;;;;;;;;;;;;;20.41;31.26;94240.16;10487893;28;4616;-49
2023/12/02 07:50:37;;;;;;;;;;;;;;;20.42;31.36;94248.84;10488697;28;2908;-48
2023/12/02 07:55:37;;;;;;;;;;;;;;;20.41;31.36;94245.44;10500438;28;2909;-50
2023/12/02 08:00:37;;;;;;;;;;;;;;;20.42;31.32;94236.47;10502550;28;2847;-50
2023/12/02 08:05:38;;;;;;;;;;;;;;;20.43;31.30;94243.25;10504544;28;2842;-52
2023/12/02 08:10:38;;;;;;;;;;;;;;;20.40;31.31;94246.53;10514883;28;2821;-49
2023/12/02 08:15:39;;;;;;;;;;;;;;;20.35;30.96;94253.78;10500846;28;2865;-48
2023/12/02 08:20:39;;;;;;;;;;;;;;;20.34;31.06;94260.88;10500642;28;2797;-51
2023/12/02 08:25:40;;;;;;;;;;;;;;;20.34;31.11;94263.50;10509922;28;2864;-48
2023/12/02 08:30:40;;;;;;;;;;;;;;;20.33;31.42;94280.41;10506141;28;2925;-51
2023/12/02 08:35:40;;;;;;;;;;;;;;;20.38;30.50;94282.88;10509127;28;2773;-47
2023/12/02 08:40:40;;;;;;;;;;;;;;;20.46;31.07;94284.78;10508986;28;2882;-49
2023/12/02 08:45:41;;;;;;;;;;;;;;;20.46;31.19;94282.13;10492229;28;4791;-52
2023/12/02 08:50:41;;;;;;;;;;;;;;;20.47;31.52;94285.53;10504068;28;2804;-49
2023/12/02 08:55:42;;;;;;;;;;;;;;;20.48;31.83;94287.09;10502464;28;2949;-52
2023/12/02 09:00:42;;;;;;;;;;;;;;;20.55;31.74;94300.56;10503183;28;2933;-51
2023/12/02 09:05:42;;;;;;;;;;;;;;;20.55;31.83;94303.19;10502881;28;2888;-50
2023/12/02 09:10:43;;;;;;;;;;;;;;;20.57;31.97;94316.81;10515128;28;2948;-50
2023/12/02 09:15:43;;;;;;;;;;;;;;;20.58;31.72;94331.53;10503327;28;2848;-49
2023/12/02 09:20:47;;;;;;;;;;;;;;;20.56;32.32;94344.25;10505268;28;3043;-51
2023/12/02 09:25:48;;;;;;;;;;;;;;;20.55;32.30;94334.78;10490237;28;2766;-47
2023/12/02 09:30:51;;;;;;;;;;;;;;;20.54;31.59;94330.59;10504793;28;2863;-48
2023/12/02 09:35:53;;;;;;;;;;;;;;;20.53;31.76;94329.81;10508831;28;2852;-47
2023/12/02 09:41:00;;;;;;;;;;;;;;;20.55;31.97;94340.81;10508304;28;2849;-51
2023/12/02 09:46:04;;;;;;;;;;;;;;;20.56;31.84;94321.31;10508090;28;4748;-47
2023/12/02 09:51:11;;;;;;;;;;;;;;;20.53;31.60;94327.19;10509637;28;2856;-49
2023/12/02 09:56:15;;;;;;;;;;;;;;;20.55;31.89;94356.63;10502367;28;2864;-48
2023/12/02 10:01:22;;;;;;;;;;;;;;;20.56;32.17;94371.34;10499936;28;2902;-48
2023/12/02 10:06:44;;;;;;;;;;;;;;;20.57;32.12;94375.50;10491765;28;2863;-46
2023/12/02 10:12:08;;;;;;;;;;;;;;;20.50;32.25;94416.53;10504794;28;2939;-48
2023/12/02 10:17:09;;;;;;;;;;;;;;;20.52;31.88;94467.03;10504241;28;2773;-49
2023/12/02 10:22:09;;;;;;;;;;;;;;;20.54;31.97;94478.03;10496204;28;2890;-48
2023/12/02 10:27:12;;;;;;;;;;;;;;;20.53;31.92;94463.28;10498026;28;2935;-47
2023/12/02 10:32:23;;;;;;;;;;;;;;;20.51;32.06;94453.06;10503525;28;2832;-48
2023/12/02 10:37:25;;;;;;;;;;;;;;;20.49;31.84;94433.41;10505329;28;2791;-49
2023/12/02 10:42:27;;;;;;;;;;;;;;;20.50;31.98;94432.34;10505579;28;2856;-50
2023/12/02 10:47:28;;;;;;;;;;;;;;;20.50;31.71;94422.59;10499623;28;4961;-47
2023/12/02 10:52:28;;;;;;;;;;;;;;;20.52;31.66;94430.16;10480334;28;2827;-46
2023/12/02 10:57:29;;;;;;;;;;;;;;;20.49;31.89;94428.91;10498869;28;2879;-47
2023/12/02 11:02:46;;;;;;;;;;;;;;;20.45;31.75;94424.56;10497874;28;2832;-48
2023/12/02 11:07:48;;;;;;;;;;;;;;;20.45;31.71;94435.09;10495808;28;2933;-48
2023/12/02 11:12:51;;;;;;;;;;;;;;;20.43;31.73;94438.03;10510655;28;2865;-51
2023/12/02 11:18:04;;;;;;;;;;;;;;;20.46;31.50;94441.91;10501560;28;2893;-49
2023/12/02 11:23:18;;;;;;;;;;;;;;;20.36;32.37;94450.84;10522046;28;2794;-50
2023/12/02 11:28:25;;;;;;;;;;;;;;;20.41;31.65;94465.72;10498080;28;2872;-48
2023/12/02 11:33:28;;;;;;;;;;;;;;;20.43;31.58;94482.00;10514706;28;2819;-49
2023/12/02 11:38:32;;;;;;;;;;;;;;;20.40;31.90;94509.72;10496718;28;2991;-50
2023/12/02 11:43:35;;;;;;;;;;;;;;;20.38;31.52;94519.72;10491816;28;4384;-50
2023/12/02 11:48:55;;;;;;;;;;;;;;;20.42;31.67;94536.50;10495563;28;2945;-48
2023/12/02 11:54:09;;;;;;;;;;;;;;;20.40;31.55;94543.94;10503822;28;2937;-48
2023/12/02 11:59:16;;;;;;;;;;;;;;;20.42;31.15;94554.94;10502337;28;2830;-48
2023/12/02 12:04:16;;;;;;;;;;;;;;;20.35;32.00;94573.00;10496806;28;3009;-48
2023/12/02 12:09:21;;;;;;;;;;;;;;;20.42;31.31;94572.56;10492939;28;2919;-50
2023/12/02 12:14:22;;;;;;;;;;;;;;;20.38;31.54;94595.31;10501445;28;2940;-46
2023/12/02 12:19:22;;;;;;;;;;;;;;;20.40;31.24;94604.47;10496157;28;2919;-51
2023/12/02 12:24:22;;;;;;;;;;;;;;;20.39;31.01;94610.78;10493584;28;2829;-47
2023/12/02 12:29:22;;;;;;;;;;;;;;;20.35;31.48;94630.09;10497601;28;2849;-47
2023/12/02 12:34:25;;;;;;;;;;;;;;;20.40;31.17;94637.91;10503697;28;2871;-49
2023/12/02 12:39:25;;;;;;;;;;;;;;;20.40;31.32;94638.69;10497518;28;2781;-46
2023/12/02 12:44:26;;;;;;;;;;;;;;;20.33;31.53;94654.09;10511852;28;4653;-51
2023/12/02 12:49:26;;;;;;;;;;;;;;;20.41;30.86;94666.53;10502002;28;2906;-46
2023/12/02 12:54:27;;;;;;;;;;;;;;;20.36;31.07;94668.53;10502443;28;2886;-47
2023/12/02 12:59:27;;;;;;;;;;;;;;;20.38;31.02;94675.03;10505017;28;2803;-49
2023/12/02 13:04:38;;;;;;;;;;;;;;;20.32;31.28;94678.84;10501500;28;2997;-50
2023/12/02 13:09:41;;;;;;;;;;;;;;;20.37;30.97;94681.38;10516031;28;2833;-51
2023/12/02 13:14:50;;;;;;;;;;;;;;;20.35;30.89;94696.69;10508801;28;2899;-54
2023/12/02 13:19:51;;;;;;;;;;;;;;;20.35;31.22;94701.16;10506644;28;2926;-49
2023/12/02 13:24:56;;;;;;;;;;;;;;;20.34;31.13;94708.28;10504350;28;2849;-49
2023/12/02 13:29:57;;;;;;;;;;;;;;;20.30;31.35;94723.09;10505899;28;2825;-49
2023/12/02 13:35:01;;;;;;;;;;;;;;;20.25;31.97;94729.28;10512905;28;2830;-50
2023/12/02 13:40:01;;;;;;;;;;;;;;;20.36;31.07;94732.44;10516952;28;2224;-47
2023/12/02 13:45:05;;;;;;;;;;;;;;;20.36;31.41;94748.22;10522284;28;4665;-53
2023/12/02 13:50:05;;;;;;;;;;;;;;;20.34;32.03;94755.66;10512480;28;1706;-50
2023/12/02 13:55:11;;;;;;;;;;;;;;;20.39;31.55;94758.19;10518440;28;2271;-50
2023/12/02 14:00:11;;;;;;;;;;;;;;;20.46;31.44;94773.59;10515371;28;2754;-48
2023/12/02 14:05:20;;;;;;;;;;;;;;;20.51;31.34;94782.13;10516255;28;2134;-48
2023/12/02 14:10:21;;;;;;;;;;;;;;;20.56;31.25;94795.22;10519425;28;2095;-47
2023/12/02 14:15:28;;;;;;;;;;;;;;;20.63;31.99;94802.72;10524089;28;1652;-46
2023/12/02 14:20:28;;;;;;;;;;;;;;;20.79;31.37;94817.09;10514110;28;1503;-50
2023/12/02 14:25:28;;;;;;;;;;;;;;;20.91;30.88;94827.91;10515935;28;2557;-48
2023/12/02 14:30:35;;;;;;;;;;;;;;;21.01;30.14;94839.00;10520787;28;1492;-47
2023/12/02 14:35:40;;;;;;;;;;;;;;;21.08;30.27;94853.63;10519547;28;1534;-51
2023/12/02 14:40:42;;;;;;;;;;;;;;;21.14;30.17;94863.00;10512934;28;1524;-51
2023/12/02 14:45:43;;;;;;;;;;;;;;;20.98;30.21;94871.19;10521279;28;3046;-50
2023/12/02 14:50:44;;;;;;;;;;;;;;;21.22;30.10;94880.72;10518123;28;1899;-57
2023/12/02 14:55:44;;;;;;;;;;;;;;;21.29;31.12;94894.28;10511261;28;1478;-47
2023/12/02 15:00:44;;;;;;;;;;;;;;;21.43;29.82;94905.56;10516580;28;1596;-52
2023/12/02 15:05:46;;;;;;;;;;;;;;;21.45;29.76;94911.31;10514429;28;2462;-48
2023/12/02 15:10:47;;;;;;;;;;;;;;;21.41;29.68;94934.06;10521133;28;1784;-45
2023/12/02 15:15:47;;;;;;;;;;;;;;;21.50;30.16;94945.44;10520007;28;1461;-49
2023/12/02 15:20:48;;;;;;;;;;;;;;;21.54;29.71;94967.50;10519792;28;1474;-46
2023/12/02 15:25:48;;;;;;;;;;;;;;;21.56;29.93;94973.25;10517105;28;1910;-48
2023/12/02 15:30:48;;;;;;;;;;;;;;;21.58;30.25;94974.53;10519364;28;2009;-44
2023/12/02 15:35:49;;;;;;;;;;;;;;;21.59;30.04;94991.16;10518851;28;2855;-45
2023/12/02 15:40:49;;;;;;;;;;;;;;;21.64;29.79;94997.06;10511184;28;2963;-45
2023/12/02 15:45:49;;;;;;;;;;;;;;;21.61;29.88;95010.09;10521245;28;4769;-45
2023/12/02 15:50:50;;;;;;;;;;;;;;;21.62;30.12;95022.97;10510251;28;1845;-45
2023/12/02 15:55:50;;;;;;;;;;;;;;;21.72;29.63;95032.53;10506314;28;2810;-47
2023/12/02 16:00:50;;;;;;;;;;;;;;;21.65;30.00;95046.13;10497368;28;3256;-47
2023/12/02 16:05:51;;;;;;;;;;;;;;;21.71;30.35;95062.63;10497385;28;2797;-45
2023/12/02 16:11:00;;;;;;;;;;;;;;;21.78;30.52;95071.66;10498047;28;2869;-46
2023/12/02 16:16:04;;;;;;;;;;;;;;;21.90;30.45;95080.97;10506566;28;2875;-46
2023/12/02 16:21:05;;;;;;;;;;;;;;;22.01;30.65;95085.72;10521872;28;2923;-47
2023/12/02 16:26:07;;;;;;;;;;;;;;;22.14;29.70;95107.88;10506020;28;2794;-48
2023/12/02 16:31:07;;;;;;;;;;;;;;;22.21;30.42;95119.59;10509666;28;3083;-48
2023/12/02 16:36:08;;;;;;;;;;;;;;;22.09;28.96;95132.50;10504285;28;2888;-46
2023/12/02 16:41:08;;;;;;;;;;;;;;;22.08;28.33;95148.66;10510438;28;2885;-49
2023/12/02 16:46:08;;;;;;;;;;;;;;;22.04;28.15;95161.66;10507550;28;4720;-45
2023/12/02 16:51:09;;;;;;;;;;;;;;;22.03;27.93;95169.88;10503603;28;2929;-47
2023/12/02 16:56:09;;;;;;;;;;;;;;;22.00;27.75;95184.44;10505388;28;2875;-48
2023/12/02 17:01:09;;;;;;;;;;;;;;;22.02;27.45;95190.22;10503945;28;2837;-48
2023/12/02 17:06:11;;;;;;;;;;;;;;;22.07;27.55;95202.53;10508758;28;2804;-48
2023/12/02 17:11:20;;;;;;;;;;;;;;;22.03;28.00;95207.59;10506457;28;2923;-47
2023/12/02 17:16:29;;;;;;;;;;;;;;;22.04;27.42;95232.13;10501496;28;2905;-47
2023/12/02 17:21:36;;;;;;;;;;;;;;;22.07;27.72;95234.19;10506525;28;2846;-48
2023/12/02 17:26:36;;;;;;;;;;;;;;;22.06;28.45;95241.34;10513050;28;2800;-51
2023/12/02 17:31:36;;;;;;;;;;;;;;;22.09;27.57;95255.81;10504794;28;2874;-50
2023/12/02 17:36:37;;;;;;;;;;;;;;;22.15;27.16;95271.25;10510672;28;2943;-50
2023/12/02 17:41:37;;;;;;;;;;;;;;;22.13;27.04;95277.91;10513995;28;2834;-48
2023/12/02 17:46:37;;;;;;;;;;;;;;;22.12;27.02;95289.53;10504682;28;4763;-53
2023/12/02 17:51:39;;;;;;;;;;;;;;;22.15;28.11;95304.78;10508833;28;2839;-49
2023/12/02 17:56:40;;;;;;;;;;;;;;;22.12;27.18;95302.72;10508203;28;2889;-49
2023/12/02 18:01:40;;;;;;;;;;;;;;;22.07;28.31;95322.06;10504969;28;2863;-48
2023/12/02 18:06:41;;;;;;;;;;;;;;;22.11;30.53;95331.00;10497475;28;2842;-48
2023/12/02 18:11:41;;;;;;;;;;;;;;;22.17;31.05;95329.81;10512405;27;2866;-49
2023/12/02 18:16:42;;;;;;;;;;;;;;;22.24;31.38;95334.69;10504706;28;2813;-52
2023/12/02 18:21:42;;;;;;;;;;;;;;;22.16;31.34;95359.91;10494565;28;2987;-47
2023/12/02 18:26:42;;;;;;;;;;;;;;;22.12;31.37;95361.56;10505563;28;2936;-47
2023/12/02 18:31:44;;;;;;;;;;;;;;;22.05;32.14;95369.09;10500257;28;2894;-46
2023/12/02 18:36:44;;;;;;;;;;;;;;;22.04;32.15;95378.09;10501228;28;2988;-46
2023/12/02 18:41:45;;;;;;;;;;;;;;;21.96;32.46;95380.63;10498909;28;2844;-46
2023/12/02 18:46:45;;;;;;;;;;;;;;;21.91;33.12;95386.75;10507001;28;4755;-50
2023/12/02 18:51:45;;;;;;;;;;;;;;;21.83;31.58;95403.25;10502259;28;2845;-47
2023/12/02 18:56:46;;;;;;;;;;;;;;;21.76;31.96;95421.31;10503167;28;2879;-51
2023/12/02 19:01:46;;;;;;;;;;;;;;;21.69;31.61;95415.59;10504608;28;2866;-48
2023/12/02 19:06:46;;;;;;;;;;;;;;;21.67;31.24;95428.28;10497201;28;2905;-50
2023/12/02 19:11:47;;;;;;;;;;;;;;;21.61;31.46;95432.09;10499805;28;2892;-46
2023/12/02 19:16:47;;;;;;;;;;;;;;;21.53;32.09;95440.66;10508200;28;2807;-49
2023/12/02 19:21:47;;;;;;;;;;;;;;;21.50;32.01;95452.53;10496016;28;2869;-49
2023/12/02 19:26:47;;;;;;;;;;;;;;;21.49;31.54;95455.47;10501516;28;2867;-49
2023/12/02 19:31:48;;;;;;;;;;;;;;;21.45;31.17;95460.53;10504052;28;2973;-46
2023/12/02 19:36:48;;;;;;;;;;;;;;;21.38;31.68;95470.66;10504507;28;2817;-49
2023/12/02 19:41:48;;;;;;;;;;;;;;;21.42;31.71;95476.13;10501946;28;2854;-47
2023/12/02 19:46:56;;;;;;;;;;;;;;;21.36;31.68;95490.47;10505996;28;4673;-45
2023/12/02 19:51:56;;;;;;;;;;;;;;;21.34;31.26;95496.03;10507885;28;2909;-44
2023/12/02 19:56:56;;;;;;;;;;;;;;;21.30;31.23;95492.38;10507814;28;2848;-48
2023/12/02 20:01:56;;;;;;;;;;;;;;;21.31;31.07;95509.00;10513228;28;2817;-47
2023/12/02 20:06:57;;;;;;;;;;;;;;;21.30;31.08;95523.22;10509839;28;2832;-50
2023/12/02 20:11:57;;;;;;;;;;;;;;;21.25;31.40;95529.34;10515357;28;2912;-49
2023/12/02 20:16:57;;;;;;;;;;;;;;;21.21;31.35;95538.09;10509975;28;2841;-47
2023/12/02 20:21:57;;;;;;;;;;;;;;;21.30;31.57;95557.50;10504838;28;2855;-48
2023/12/02 20:26:58;;;;;;;;;;;;;;;21.32;30.83;95558.81;10506980;28;2881;-47
2023/12/02 20:31:58;;;;;;;;;;;;;;;21.33;30.35;95573.53;10504783;28;2879;-47
2023/12/02 20:36:59;;;;;;;;;;;;;;;21.30;30.35;95589.16;10502244;28;3227;-48
2023/12/02 20:41:59;;;;;;;;;;;;;;;21.27;30.87;95595.75;10505681;28;2927;-50
2023/12/02 20:47:00;;;;;;;;;;;;;;;21.33;30.12;95599.91;10496086;28;4617;-48
2023/12/02 20:52:03;;;;;;;;;;;;;;;21.32;29.96;95602.81;10502815;28;2868;-48
2023/12/02 20:57:03;;;;;;;;;;;;;;;21.28;30.21;95609.72;10500857;28;2871;-51
2023/12/02 21:02:03;;;;;;;;;;;;;;;21.20;30.06;95615.63;10512067;28;2861;-53
2023/12/02 21:07:03;;;;;;;;;;;;;;;21.11;30.70;95612.81;10508321;28;3027;-50
2023/12/02 21:12:04;;;;;;;;;;;;;;;21.11;30.13;95617.28;10499536;28;3122;-47
2023/12/02 21:17:04;;;;;;;;;;;;;;;21.04;30.24;95607.09;10501930;28;2877;-47
2023/12/02 21:22:04;;;;;;;;;;;;;;;21.04;30.32;95621.03;10497407;28;2863;-49
2023/12/02 21:27:05;;;;;;;;;;;;;;;20.99;30.21;95620.28;10504458;28;2836;-49
2023/12/02 21:32:06;;;;;;;;;;;;;;;20.95;30.22;95629.81;10503080;28;2853;-51
2023/12/02 21:37:07;;;;;;;;;;;;;;;20.92;30.40;95646.97;10502458;28;2835;-51
2023/12/02 21:42:07;;;;;;;;;;;;;;;20.89;30.26;95652.81;10504776;28;2849;-47
2023/12/02 21:47:10;;;;;;;;;;;;;;;20.94;29.66;95659.84;10506184;28;2803;-52
2023/12/02 21:52:11;;;;;;;;;;;;;;;20.93;30.11;95656.44;10499665;28;3022;-48
2023/12/02 21:57:14;;;;;;;;;;;;;;;20.96;29.99;95657.72;10530907;27;2912;-46
2023/12/02 22:02:18;;;;;;;;;;;;;;;20.90;29.39;95664.91;10511009;28;2820;-49
2023/12/02 22:07:22;;;;;;;;;;;;;;;20.82;29.30;95676.03;10519311;27;2862;-46
2023/12/02 22:12:40;;;;;;;;;;;;;;;20.80;29.01;95680.78;10500397;28;2873;-50
2023/12/02 22:17:40;;;;;;;;;;;;;;;20.77;29.42;95675.31;10499732;28;2928;-46
2023/12/02 22:22:43;;;;;;;;;;;;;;;20.69;29.51;95692.47;10503626;28;2796;-50
2023/12/02 22:27:43;;;;;;;;;;;;;;;20.65;29.88;95714.38;10506778;28;2891;-46
2023/12/02 22:32:44;;;;;;;;;;;;;;;20.59;29.96;95720.72;10506096;28;2793;-45
2023/12/02 22:37:44;;;;;;;;;;;;;;;20.56;30.09;95737.88;10506946;28;2796;-45
2023/12/02 22:42:44;;;;;;;;;;;;;;;20.49;29.77;95749.75;10511394;28;2848;-49
2023/12/02 22:47:45;;;;;;;;;;;;;;;20.46;30.06;95763.47;10510092;28;4624;-45
2023/12/02 22:52:45;;;;;;;;;;;;;;;20.40;30.10;95760.09;10504442;28;3205;-46
2023/12/02 22:57:45;;;;;;;;;;;;;;;20.36;30.64;95774.06;10506823;28;2874;-48
2023/12/02 23:02:46;;;;;;;;;;;;;;;20.30;31.92;95775.91;10499888;28;2841;-46
2023/12/02 23:07:52;;;;;;;;;;;;;;;20.27;30.76;95779.09;10494909;28;2817;-45
2023/12/02 23:12:55;;;;;;;;;;;;;;;20.21;31.14;95777.56;10508032;28;3249;-48
2023/12/02 23:17:55;;;;;;;;;;;;;;;20.18;31.08;95783.31;10501583;28;2773;-46
2023/12/02 23:22:56;;;;;;;;;;;;;;;20.12;31.66;95779.13;10502013;28;2798;-45
2023/12/02 23:27:56;;;;;;;;;;;;;;;20.07;32.00;95781.81;10501190;28;2883;-46
2023/12/02 23:32:56;;;;;;;;;;;;;;;20.07;31.66;95787.06;10499490;28;3461;-45
2023/12/02 23:37:57;;;;;;;;;;;;;;;20.02;31.96;95787.06;10491492;28;2885;-46
2023/12/02 23:42:57;;;;;;;;;;;;;;;19.97;32.50;95792.38;10506672;28;3013;-44
2023/12/02 23:47:57;;;;;;;;;;;;;;;19.95;31.97;95799.72;10499895;28;5002;-45
2023/12/02 23:52:57;;;;;;;;;;;;;;;19.91;31.88;95799.47;10497929;28;2869;-47
2023/12/02 23:57:58;;;;;;;;;;;;;;;19.89;32.44;95801.56;10501325;28;2902;-47
